Time;durP1;ratioP1;P1;durP2;ratioP2;P2;SDS_P1;SDS_P2;PMS_P1;PMS_P2;Temp;Humidity;BMP_temperature;BMP_pressure;BME280_temperature;BME280_humidity;BME280_pressure;Samples;Min_cycle;Max_cycle;Signal;HPM_P1;HPM_P2
2023/07/31 00:08:00;;;;;;;1.70;1.60;;;;;;;16.94;76.37;98919.63;435709;1254;139500;-65
2023/07/31 00:18:06;;;;;;;1.40;1.30;;;;;;;16.94;77.01;98926.33;435086;1253;139015;-66
2023/07/31 00:28:12;;;;;;;4.00;2.60;;;;;;;16.86;77.75;98934.77;434947;1253;140121;-66
2023/07/31 00:38:18;;;;;;;7.30;2.80;;;;;;;16.72;79.09;98939.54;435065;1254;139711;-65
2023/07/31 00:48:24;;;;;;;3.10;2.70;;;;;;;16.61;80.06;98933.41;434912;1256;140543;-66
2023/07/31 00:58:31;;;;;;;3.60;2.20;;;;;;;16.44;81.23;98930.27;435676;1254;139454;-66
2023/07/31 01:08:45;;;;;;;2.10;2.00;;;;;;;16.34;82.55;98948.95;436329;1254;139140;-65
2023/07/31 01:18:51;;;;;;;3.50;2.60;;;;;;;16.22;83.52;98967.19;435941;1256;140117;-66
2023/07/31 01:29:02;;;;;;;3.30;2.90;;;;;;;16.20;84.68;98963.71;435334;1254;139395;-66
2023/07/31 01:39:08;;;;;;;3.60;2.70;;;;;;;16.28;85.41;98965.62;434939;1254;140734;-65
2023/07/31 01:49:14;;;;;;;3.20;2.40;;;;;;;16.31;85.66;98967.10;435047;1256;141145;-65
2023/07/31 01:59:20;;;;;;;3.80;2.60;;;;;;;16.24;85.83;98961.35;434953;1253;139094;-66
2023/07/31 02:09:26;;;;;;;3.40;2.50;;;;;;;16.09;86.25;98967.41;435081;1256;140220;-65
2023/07/31 02:19:31;;;;;;;4.00;3.10;;;;;;;15.95;86.84;98974.58;435080;1256;139653;-64
2023/07/31 02:29:37;;;;;;;2.50;2.20;;;;;;;15.87;87.35;98978.14;435341;1253;139256;-66
2023/07/31 02:39:43;;;;;;;3.00;2.70;;;;;;;15.78;87.75;98979.02;435518;1256;139608;-67
2023/07/31 02:49:49;;;;;;;3.20;2.10;;;;;;;15.69;88.44;98984.96;435610;1253;140515;-64
2023/07/31 02:59:55;;;;;;;3.30;3.00;;;;;;;15.75;88.82;98978.77;435034;1257;139096;-65
2023/07/31 03:10:00;;;;;;;6.00;3.30;;;;;;;15.76;88.95;98984.59;434936;1256;140240;-65
2023/07/31 03:20:09;;;;;;;3.60;2.50;;;;;;;15.80;89.27;98996.31;434965;1253;140557;-64
2023/07/31 03:30:15;;;;;;;3.40;2.80;;;;;;;15.82;89.34;98995.55;435543;1256;140020;-65
2023/07/31 03:40:21;;;;;;;3.60;3.30;;;;;;;15.87;89.47;99003.55;434901;1254;139360;-65
2023/07/31 03:50:27;;;;;;;4.80;2.70;;;;;;;15.88;89.39;99020.05;434994;1256;139629;-64
2023/07/31 04:00:32;;;;;;;4.70;2.50;;;;;;;15.94;89.22;99026.23;435167;1256;139450;-65
2023/07/31 04:10:38;;;;;;;4.10;2.70;;;;;;;15.98;88.87;99033.04;436218;1257;139016;-66
2023/07/31 04:20:44;;;;;;;4.00;2.40;;;;;;;16.16;88.31;99032.05;434860;1256;140732;-65
2023/07/31 04:30:51;;;;;;;4.80;2.90;;;;;;;16.39;87.65;99031.66;435345;1257;140153;-66
2023/07/31 04:40:56;;;;;;;6.20;3.10;;;;;;;16.62;86.52;99035.96;435254;1256;141010;-66
2023/07/31 04:51:03;;;;;;;3.80;2.10;;;;;;;16.75;85.37;99042.83;434975;1257;139144;-65
2023/07/31 05:01:08;;;;;;;4.50;2.20;;;;;;;16.88;84.49;99044.21;435033;1254;140661;-64
2023/07/31 05:11:14;;;;;;;6.20;2.40;;;;;;;17.07;83.65;99046.21;434827;1257;140075;-65
2023/07/31 05:21:20;;;;;;;2.30;1.80;;;;;;;17.46;82.81;99040.60;435329;1259;140113;-65
2023/07/31 05:31:26;;;;;;;2.50;1.80;;;;;;;18.73;80.33;99046.23;435134;1254;140366;-65
2023/07/31 05:41:32;;;;;;;9.80;3.30;;;;;;;21.31;76.80;99054.41;434913;1257;140061;-65
2023/07/31 05:51:37;;;;;;;3.80;2.90;;;;;;;23.51;69.96;99054.14;435198;1257;139866;-65
2023/07/31 06:01:43;;;;;;;4.20;2.50;;;;;;;23.14;66.87;99051.52;435365;1255;139756;-69
2023/07/31 06:11:49;;;;;;;4.10;1.40;;;;;;;25.00;64.40;99061.15;436640;1257;140075;-69
2023/07/31 06:21:55;;;;;;;3.70;2.30;;;;;;;27.56;59.33;99072.84;435093;1255;139736;-68
2023/07/31 06:32:02;;;;;;;2.50;1.90;;;;;;;29.82;54.12;99063.02;435071;1257;140676;-68
2023/07/31 06:42:09;;;;;;;3.10;1.90;;;;;;;30.88;50.35;99068.31;435402;1254;138498;-68
2023/07/31 06:52:14;;;;;;;3.90;1.30;;;;;;;31.37;48.12;99071.52;435467;1257;139538;-70
2023/07/31 07:02:20;;;;;;;2.50;1.70;;;;;;;32.37;45.00;99069.92;435542;1257;140821;-69
2023/07/31 07:12:26;;;;;;;3.50;1.80;;;;;;;29.16;45.25;99074.91;435269;1256;140095;-62
2023/07/31 07:22:32;;;;;;;3.00;1.90;;;;;;;26.99;47.01;99075.90;434950;1253;139588;-72
2023/07/31 07:32:38;;;;;;;3.30;1.60;;;;;;;26.15;48.24;99074.14;438275;1257;140356;-66
2023/07/31 07:42:43;;;;;;;4.20;1.90;;;;;;;27.00;47.81;99073.27;435874;1254;191528;-75
2023/07/31 07:52:49;;;;;;;2.30;1.20;;;;;;;27.85;46.64;99063.62;438653;1255;139038;-74
2023/07/31 08:02:57;;;;;;;3.20;1.80;;;;;;;29.02;45.85;99070.21;438595;1256;138429;-73
2023/07/31 08:13:03;;;;;;;2.20;1.60;;;;;;;30.72;42.49;99077.36;438272;1257;138488;-73
2023/07/31 08:23:09;;;;;;;2.30;0.80;;;;;;;28.87;42.43;99084.92;436968;1256;138537;-78
2023/07/31 08:33:14;;;;;;;2.30;1.70;;;;;;;27.52;42.89;99087.08;438449;1254;142374;-71
2023/07/31 08:43:21;;;;;;;1.90;1.00;;;;;;;27.38;42.93;99082.06;437853;1254;140361;-68
2023/07/31 08:53:27;;;;;;;4.40;2.00;;;;;;;27.28;42.72;99076.30;438720;1254;138408;-71
2023/07/31 09:03:37;;;;;;;2.80;1.70;;;;;;;27.14;42.72;99067.79;438259;1254;138577;-70
2023/07/31 09:13:44;;;;;;;1.90;1.10;;;;;;;26.87;42.72;99067.76;439023;1253;139489;-75
2023/07/31 09:23:52;;;;;;;2.30;1.50;;;;;;;27.14;42.56;99065.52;438459;1254;138695;-71
2023/07/31 09:33:58;;;;;;;2.40;1.00;;;;;;;27.47;42.31;99059.41;438263;1257;138245;-72
2023/07/31 09:44:04;;;;;;;3.50;1.20;;;;;;;27.59;42.46;99062.56;438635;1254;138789;-70
2023/07/31 09:54:14;;;;;;;2.60;1.40;;;;;;;27.39;42.05;99062.40;438712;1254;138425;-72
2023/07/31 10:04:25;;;;;;;1.90;1.10;;;;;;;26.94;41.73;99055.70;440511;1254;138663;-68
2023/07/31 10:14:33;;;;;;;2.40;0.90;;;;;;;26.46;41.93;99049.96;438817;1254;138404;-69
2023/07/31 10:24:42;;;;;;;2.90;1.20;;;;;;;26.39;41.97;99036.30;438607;1253;140066;-74
2023/07/31 10:34:48;;;;;;;3.80;1.70;;;;;;;26.80;42.06;99027.30;438498;1254;138305;-71
2023/07/31 10:44:59;;;;;;;3.00;1.10;;;;;;;27.33;41.32;99013.56;438735;1256;139531;-70
2023/07/31 10:55:28;;;;;;;3.00;1.50;;;;;;;27.23;40.66;99011.00;439238;1252;139144;-68
2023/07/31 11:05:49;;;;;;;2.30;1.50;;;;;;;26.89;41.03;99007.30;437341;1253;138412;-73
2023/07/31 11:15:55;;;;;;;3.80;1.50;;;;;;;26.39;41.76;99002.67;439012;1254;140550;-73
2023/07/31 11:26:03;;;;;;;1.40;0.90;;;;;;;26.79;41.16;98991.30;435100;1253;141285;-65
2023/07/31 11:36:18;;;;;;;2.20;0.90;;;;;;;27.32;40.68;98980.64;436982;1256;139169;-65
2023/07/31 11:46:25;;;;;;;2.90;1.00;;;;;;;27.18;40.31;98974.95;435977;1254;140298;-64
2023/07/31 11:56:31;;;;;;;4.60;1.60;;;;;;;26.69;40.40;98968.67;436129;1253;140614;-65
2023/07/31 12:06:38;;;;;;;1.80;1.40;;;;;;;26.29;40.84;98964.72;435421;1254;138395;-65
2023/07/31 12:16:43;;;;;;;;;;;;;;;25.55;41.15;98956.73;435343;1253;140247;-64
2023/07/31 12:26:52;;;;;;;4.50;1.50;;;;;;;24.52;42.12;98948.40;435052;1254;125701;-63
2023/07/31 12:36:59;;;;;;;1.80;0.70;;;;;;;23.85;43.25;98933.98;435822;1253;138299;-72
2023/07/31 12:47:05;;;;;;;3.50;1.00;;;;;;;24.41;43.73;98925.41;435274;1253;138662;-74
2023/07/31 12:57:11;;;;;;;2.60;1.40;;;;;;;25.08;43.03;98922.34;439499;1253;138484;-70
2023/07/31 13:07:17;;;;;;;2.80;1.60;;;;;;;25.07;43.35;98913.75;438139;1253;139026;-70
2023/07/31 13:17:23;;;;;;;2.50;1.10;;;;;;;25.88;43.32;98893.39;436692;1251;139193;-75
2023/07/31 13:27:29;;;;;;;1.20;0.80;;;;;;;26.63;42.51;98881.08;438836;1250;138646;-63
2023/07/31 13:37:35;;;;;;;3.20;1.00;;;;;;;26.29;42.37;98876.34;436118;1253;139020;-62
2023/07/31 13:47:41;;;;;;;3.00;1.10;;;;;;;25.97;42.89;98869.02;436288;1253;138681;-63
2023/07/31 13:57:48;;;;;;;1.40;1.00;;;;;;;25.55;43.53;98865.16;436084;1250;138271;-66
2023/07/31 14:07:54;;;;;;;2.00;0.80;;;;;;;25.53;43.72;98857.65;436980;1249;139610;-66
2023/07/31 14:18:00;;;;;;;2.80;0.80;;;;;;;25.34;43.93;98857.52;436100;1253;139485;-66
2023/07/31 14:28:07;;;;;;;4.60;1.60;;;;;;;25.32;44.30;98853.02;436395;1253;139661;-67
2023/07/31 14:38:13;;;;;;;2.50;1.10;;;;;;;25.29;44.26;98851.25;436204;1250;138438;-68
2023/07/31 14:48:19;;;;;;;3.40;1.30;;;;;;;25.07;44.71;98844.90;435946;1249;138475;-67
2023/07/31 14:58:25;;;;;;;3.80;1.30;;;;;;;24.61;45.20;98847.38;436134;1251;138647;-66
2023/07/31 15:08:31;;;;;;;3.90;1.10;;;;;;;24.31;45.90;98836.55;436547;1250;140270;-66
2023/07/31 15:18:37;;;;;;;5.30;2.60;;;;;;;24.12;46.44;98836.40;436409;1253;139088;-66
2023/07/31 15:28:43;;;;;;;2.40;1.20;;;;;;;24.01;47.01;98836.29;436269;1250;138431;-67
2023/07/31 15:38:50;;;;;;;2.20;1.20;;;;;;;24.11;47.41;98833.21;437063;1250;138894;-66
2023/07/31 15:48:56;;;;;;;2.00;1.10;;;;;;;23.97;47.32;98831.16;436230;1250;138302;-66
2023/07/31 15:59:02;;;;;;;1.30;1.20;;;;;;;23.60;47.59;98819.09;435855;1253;139299;-65
2023/07/31 16:09:08;;;;;;;3.70;1.20;;;;;;;23.20;47.79;98816.88;436314;1253;138775;-64
2023/07/31 16:19:14;;;;;;;3.30;1.30;;;;;;;23.13;48.71;98809.17;435354;1250;139087;-61
2023/07/31 16:29:20;;;;;;;1.80;1.20;;;;;;;23.15;48.77;98798.06;435658;1250;138431;-63
2023/07/31 16:39:25;;;;;;;3.20;2.10;;;;;;;23.05;49.05;98789.21;435616;1250;140139;-64
2023/07/31 16:49:31;;;;;;;2.40;1.80;;;;;;;22.75;49.39;98782.65;435831;1253;139326;-64
2023/07/31 16:59:37;;;;;;;4.00;1.70;;;;;;;22.19;50.10;98787.52;436010;1250;138655;-65
2023/07/31 17:09:44;;;;;;;2.00;1.70;;;;;;;21.85;50.82;98795.13;435751;1253;138896;-64
2023/07/31 17:19:50;;;;;;;2.00;1.40;;;;;;;21.67;51.47;98794.71;435854;1253;139027;-65
2023/07/31 17:29:57;;;;;;;1.80;1.60;;;;;;;21.53;51.98;98801.03;436399;1253;138556;-64
2023/07/31 17:40:04;;;;;;;2.20;1.90;;;;;;;21.38;52.49;98801.94;436132;1253;139359;-65
2023/07/31 17:50:11;;;;;;;3.10;1.70;;;;;;;21.25;52.85;98797.61;436337;1253;139938;-65
2023/07/31 18:00:18;;;;;;;3.20;2.10;;;;;;;21.07;53.49;98800.27;436750;1253;138900;-65
2023/07/31 18:10:23;;;;;;;6.10;2.00;;;;;;;20.92;53.97;98806.36;436148;1250;139951;-64
2023/07/31 18:20:29;;;;;;;4.90;1.50;;;;;;;20.75;54.48;98811.77;436164;1253;139570;-64
2023/07/31 18:30:35;;;;;;;4.70;3.70;;;;;;;20.61;55.03;98807.34;436681;1249;138946;-65
2023/07/31 18:40:41;;;;;;;3.10;2.10;;;;;;;20.47;55.32;98813.70;436812;1251;140155;-64
2023/07/31 18:50:46;;;;;;;4.40;2.40;;;;;;;20.33;55.82;98815.20;436126;1250;138985;-65
2023/07/31 19:00:53;;;;;;;3.00;2.70;;;;;;;20.20;56.57;98822.42;436284;1251;139104;-65
2023/07/31 19:11:01;;;;;;;4.20;2.80;;;;;;;20.08;57.43;98821.29;436577;1250;139409;-65
2023/07/31 19:21:07;;;;;;;7.80;2.90;;;;;;;19.96;57.96;98821.23;436321;1251;140296;-66
2023/07/31 19:31:13;;;;;;;4.50;3.40;;;;;;;19.86;58.45;98812.60;436622;1250;138420;-65
2023/07/31 19:41:19;;;;;;;9.10;3.90;;;;;;;19.78;58.95;98805.46;437135;1252;179606;-67
2023/07/31 19:51:25;;;;;;;2.80;2.50;;;;;;;19.66;59.35;98797.81;436586;1250;138882;-68
2023/07/31 20:01:31;;;;;;;5.10;3.70;;;;;;;19.51;59.89;98784.67;436769;1251;139471;-68
2023/07/31 20:11:37;;;;;;;3.70;3.30;;;;;;;19.42;60.39;98769.46;436513;1250;140136;-68
2023/07/31 20:21:43;;;;;;;4.20;3.80;;;;;;;19.37;60.40;98772.41;436844;1250;139899;-68
2023/07/31 20:31:49;;;;;;;6.40;3.80;;;;;;;19.29;60.75;98766.55;436858;1253;140537;-68
2023/07/31 20:41:54;;;;;;;6.00;3.30;;;;;;;19.26;61.24;98760.67;436444;1253;141036;-66
2023/07/31 20:52:01;;;;;;;6.30;3.10;;;;;;;19.19;61.75;98748.46;436368;1251;139459;-67
2023/07/31 21:02:07;;;;;;;4.40;3.10;;;;;;;19.12;62.04;98733.50;436263;1250;139542;-67
2023/07/31 21:12:13;;;;;;;14.90;3.60;;;;;;;19.05;62.40;98726.66;436407;1250;140874;-65
2023/07/31 21:22:19;;;;;;;3.20;2.80;;;;;;;19.00;62.92;98715.74;436486;1250;139922;-66
2023/07/31 21:32:25;;;;;;;3.90;2.90;;;;;;;18.87;62.97;98707.70;436375;1253;140049;-65
2023/07/31 21:42:31;;;;;;;3.90;3.30;;;;;;;18.63;63.64;98697.21;436277;1253;139157;-66
2023/07/31 21:52:37;;;;;;;3.50;3.00;;;;;;;18.35;64.27;98686.02;436080;1253;139975;-65
2023/07/31 22:02:42;;;;;;;5.60;3.90;;;;;;;18.04;65.43;98682.29;435982;1250;140676;-66
2023/07/31 22:12:52;;;;;;;4.50;3.10;;;;;;;17.73;66.43;98673.93;436095;1253;139515;-67
2023/07/31 22:22:59;;;;;;;9.30;3.20;;;;;;;17.45;67.40;98660.13;436729;1253;139309;-66
2023/07/31 22:33:05;;;;;;;5.00;3.50;;;;;;;17.21;68.37;98650.00;435904;1250;139687;-66
2023/07/31 22:43:11;;;;;;;4.80;2.60;;;;;;;17.01;68.83;98645.09;435671;1250;139098;-67
2023/07/31 22:53:17;;;;;;;4.60;3.00;;;;;;;17.05;69.09;98638.17;436369;1253;140444;-66
2023/07/31 23:03:23;;;;;;;5.70;3.00;;;;;;;17.18;69.10;98638.84;435811;1253;139149;-65
2023/07/31 23:13:29;;;;;;;4.50;2.60;;;;;;;17.18;69.11;98627.98;436109;1253;140860;-67
2023/07/31 23:23:34;;;;;;;3.60;2.50;;;;;;;17.20;69.10;98617.98;435875;1256;139139;-67
2023/07/31 23:33:40;;;;;;;5.90;3.20;;;;;;;17.25;68.98;98609.95;435896;1254;139587;-68
2023/07/31 23:43:46;;;;;;;3.80;3.30;;;;;;;17.26;68.93;98603.60;436134;1253;140515;-66
2023/07/31 23:53:52;;;;;;;4.10;3.00;;;;;;;17.19;68.94;98594.30;436428;1253;139675;-66
